Time;durP1;ratioP1;P1;durP2;ratioP2;P2;SDS_P1;SDS_P2;PMS_P1;PMS_P2;Temp;Humidity;BMP_temperature;BMP_pressure;BME280_temperature;BME280_humidity;BME280_pressure;Samples;Min_cycle;Max_cycle;Signal;HPM_P1;HPM_P2
2022/03/26 00:00:24;;;;;;;21.95;6.88;;;;;;;6.77;81.15;101040.06;5046754;28;20101;-66
2022/03/26 00:02:51;;;;;;;16.30;6.15;;;;;;;6.80;81.25;101058.22;5046899;28;20028;-66
2022/03/26 00:05:16;;;;;;;21.95;5.35;;;;;;;6.68;81.15;101047.63;5029030;28;20025;-66
2022/03/26 00:07:42;;;;;;;30.60;6.53;;;;;;;6.73;81.46;101071.81;5046548;28;20465;-66
2022/03/26 00:10:09;;;;;;;26.08;5.85;;;;;;;6.67;81.24;101066.56;5046741;28;20044;-67
2022/03/26 00:12:35;;;;;;;24.40;6.53;;;;;;;6.73;81.01;101070.94;5046668;28;20099;-66
2022/03/26 00:15:01;;;;;;;19.05;5.38;;;;;;;6.69;81.04;101067.47;5046853;28;20029;-67
2022/03/26 00:17:27;;;;;;;26.35;5.72;;;;;;;6.69;81.31;101076.06;5046829;28;20036;-66
2022/03/26 00:19:53;;;;;;;18.52;6.45;;;;;;;6.61;81.35;101077.66;5046517;28;20140;-67
2022/03/26 00:22:19;;;;;;;23.88;6.20;;;;;;;6.69;81.10;101094.13;5046091;28;20044;-67
2022/03/26 00:24:44;;;;;;;21.92;5.72;;;;;;;6.67;81.07;101100.97;5046879;28;20100;-67
2022/03/26 00:27:09;;;;;;;18.80;4.97;;;;;;;6.58;81.26;101095.66;5046538;28;20524;-68
2022/03/26 00:29:35;;;;;;;27.70;6.68;;;;;;;6.61;81.08;101093.13;5046262;28;20168;-66
2022/03/26 00:32:03;;;;;;;23.17;5.63;;;;;;;6.62;80.70;101100.00;5028588;28;20105;-66
2022/03/26 00:34:29;;;;;;;15.88;6.05;;;;;;;6.61;80.49;101100.88;5046242;28;20085;-66
2022/03/26 00:36:54;;;;;;;19.58;5.10;;;;;;;6.65;80.24;101112.09;5046237;28;20029;-66
2022/03/26 00:39:20;;;;;;;25.63;5.82;;;;;;;6.60;80.24;101109.44;5012218;28;20029;-66
2022/03/26 00:41:45;;;;;;;21.77;5.32;;;;;;;6.58;80.23;101103.38;5045851;28;20103;-66
2022/03/26 00:44:11;;;;;;;24.95;5.65;;;;;;;6.49;80.22;101088.59;5046221;28;20041;-66
2022/03/26 00:46:36;;;;;;;23.30;6.18;;;;;;;6.54;80.22;101109.31;5046106;28;20022;-66
2022/03/26 00:49:02;;;;;;;26.23;5.45;;;;;;;6.56;80.20;101112.81;5045836;28;20048;-66
2022/03/26 00:51:27;;;;;;;19.15;5.30;;;;;;;6.57;80.16;101119.69;5045476;28;20078;-66
2022/03/26 00:53:53;;;;;;;23.05;5.53;;;;;;;6.53;80.08;101121.34;5046195;28;20028;-65
2022/03/26 00:56:18;;;;;;;20.33;4.80;;;;;;;6.54;80.00;101129.94;5028030;28;20501;-66
2022/03/26 00:58:44;;;;;;;28.48;6.72;;;;;;;6.52;79.87;101116.13;5046357;28;20029;-69
2022/03/26 01:01:11;;;;;;;29.08;5.45;;;;;;;6.47;79.77;101115.19;5045032;28;20120;-66
2022/03/26 01:03:37;;;;;;;31.17;6.30;;;;;;;6.42;79.75;101115.97;5045717;28;20040;-66
2022/03/26 01:06:05;;;;;;;23.02;5.65;;;;;;;6.42;79.80;101121.13;5045406;28;20029;-66
2022/03/26 01:08:31;;;;;;;24.05;5.78;;;;;;;6.43;79.73;101122.88;5046197;28;20026;-66
2022/03/26 01:10:58;;;;;;;26.48;5.55;;;;;;;6.39;79.81;101126.22;5045752;28;20029;-66
2022/03/26 01:13:25;;;;;;;27.15;5.53;;;;;;;6.38;79.82;101129.66;5045843;28;20044;-65
2022/03/26 01:15:51;;;;;;;26.63;5.47;;;;;;;6.37;79.62;101130.50;5045519;28;20045;-65
2022/03/26 01:18:17;;;;;;;21.17;4.38;;;;;;;6.32;79.86;101132.97;5045599;28;20029;-65
2022/03/26 01:20:42;;;;;;;21.45;5.28;;;;;;;6.25;80.08;101125.06;5045198;28;20021;-68
2022/03/26 01:23:09;;;;;;;25.15;5.47;;;;;;;6.28;80.06;101127.69;5045656;28;20037;-66
2022/03/26 01:25:35;;;;;;;18.58;5.43;;;;;;;6.24;80.35;101131.94;5045567;28;20045;-66
2022/03/26 01:28:00;;;;;;;32.42;5.85;;;;;;;6.19;80.46;101125.81;5045503;28;20029;-66
2022/03/26 01:30:26;;;;;;;22.58;4.72;;;;;;;6.23;80.54;101121.59;5045252;28;20059;-66
2022/03/26 01:32:52;;;;;;;21.35;4.38;;;;;;;6.19;80.70;101124.09;5045497;28;20030;-66
2022/03/26 01:35:18;;;;;;;18.67;3.97;;;;;;;6.19;81.00;101128.38;5045593;28;20021;-66
2022/03/26 01:37:44;;;;;;;31.27;4.90;;;;;;;6.18;81.15;101130.09;5045009;28;20044;-66
2022/03/26 01:40:09;;;;;;;19.30;4.22;;;;;;;6.15;81.50;101137.75;5045140;28;20026;-66
2022/03/26 01:42:35;;;;;;;22.95;4.35;;;;;;;6.16;81.78;101141.22;5045231;28;20049;-66
2022/03/26 01:45:01;;;;;;;20.02;3.45;;;;;;;6.14;81.88;101132.56;5045027;28;20083;-66
2022/03/26 01:47:27;;;;;;;22.83;4.50;;;;;;;6.16;81.98;101141.22;5045343;28;20025;-66
2022/03/26 01:49:52;;;;;;;21.30;5.35;;;;;;;6.15;82.23;101134.31;5045174;28;20037;-65
2022/03/26 01:52:17;;;;;;;14.95;3.65;;;;;;;6.14;82.46;101138.59;5044729;28;20039;-66
2022/03/26 01:54:44;;;;;;;20.27;4.80;;;;;;;6.17;82.36;101148.97;5045278;28;20531;-65
2022/03/26 01:57:10;;;;;;;18.98;3.97;;;;;;;6.18;82.27;101145.56;5045038;28;20025;-66
2022/03/26 01:59:37;;;;;;;19.85;3.67;;;;;;;6.20;82.36;101143.00;5044917;28;20044;-66
2022/03/26 02:02:03;;;;;;;22.60;3.20;;;;;;;6.27;82.08;101144.03;5044995;28;20085;-66
2022/03/26 02:04:28;;;;;;;21.58;4.32;;;;;;;6.32;82.00;101137.25;5045111;28;20034;-66
2022/03/26 02:06:53;;;;;;;26.48;4.55;;;;;;;6.29;81.98;101150.09;5044608;28;20021;-66
2022/03/26 02:09:19;;;;;;;21.45;4.10;;;;;;;6.34;81.66;101150.19;5044589;28;20081;-66
2022/03/26 02:11:46;;;;;;;22.92;4.70;;;;;;;6.35;81.63;101146.75;5044453;28;20028;-66
2022/03/26 02:14:13;;;;;;;17.25;4.50;;;;;;;6.37;81.40;101160.56;5044051;28;20082;-66
2022/03/26 02:16:43;;;;;;;28.45;4.53;;;;;;;6.34;81.50;101156.22;5044652;28;20025;-66
2022/03/26 02:19:09;;;;;;;25.85;4.65;;;;;;;6.32;81.57;101165.63;5044571;28;20017;-66
2022/03/26 02:21:37;;;;;;;24.50;3.90;;;;;;;6.30;81.67;101164.72;5044241;28;20041;-66
2022/03/26 02:24:04;;;;;;;23.90;5.93;;;;;;;6.34;81.46;101163.97;5044589;28;20147;-66
2022/03/26 02:26:30;;;;;;;21.10;4.07;;;;;;;6.29;81.68;101163.84;5043826;28;20071;-66
2022/03/26 02:28:57;;;;;;;24.45;5.15;;;;;;;6.31;81.60;101164.75;5043801;28;20025;-66
2022/03/26 02:31:23;;;;;;;25.55;4.15;;;;;;;6.24;81.89;101156.84;5043716;28;20021;-66
2022/03/26 02:33:49;;;;;;;16.67;3.55;;;;;;;6.24;82.01;101160.31;5044068;28;20026;-66
2022/03/26 02:36:15;;;;;;;27.20;3.78;;;;;;;6.23;82.16;101170.59;5043827;28;20504;-66
2022/03/26 02:38:41;;;;;;;22.75;4.70;;;;;;;6.17;82.13;101163.56;5044092;28;20025;-64
2022/03/26 02:41:08;;;;;;;25.20;4.47;;;;;;;6.17;82.25;101166.16;5043550;28;20054;-64
2022/03/26 02:43:33;;;;;;;28.75;3.88;;;;;;;6.20;82.01;101169.66;5043904;28;20049;-65
2022/03/26 02:45:59;;;;;;;35.20;4.43;;;;;;;6.16;82.14;101157.56;5043690;28;20080;-66
2022/03/26 02:48:25;;;;;;;20.58;3.63;;;;;;;6.20;82.28;101164.50;5043941;28;20330;-66
2022/03/26 02:50:50;;;;;;;21.55;4.25;;;;;;;6.18;82.11;101158.44;5025655;28;20051;-66
2022/03/26 02:53:16;;;;;;;32.63;4.53;;;;;;;6.16;82.23;101162.72;5043663;28;20100;-66
2022/03/26 02:55:41;;;;;;;24.50;4.00;;;;;;;6.10;82.22;101152.28;5043415;28;20029;-66
2022/03/26 02:58:08;;;;;;;22.98;4.15;;;;;;;6.15;82.19;101168.69;5043558;28;20037;-66
2022/03/26 03:00:34;;;;;;;20.60;3.38;;;;;;;6.16;82.34;101162.72;5025609;28;20021;-66
2022/03/26 03:03:00;;;;;;;20.38;4.78;;;;;;;6.18;82.19;101170.50;5043457;28;20044;-66
2022/03/26 03:05:26;;;;;;;23.58;4.97;;;;;;;6.11;82.17;101164.31;5043703;28;20684;-66
2022/03/26 03:07:53;;;;;;;17.48;3.38;;;;;;;6.14;81.99;101166.09;5043277;28;20025;-64
2022/03/26 03:10:18;;;;;;;18.17;3.53;;;;;;;6.14;81.66;101163.50;5043170;28;20057;-66
2022/03/26 03:12:48;;;;;;;22.33;4.05;;;;;;;6.16;81.77;101175.63;5043477;28;20071;-67
2022/03/26 03:15:18;;;;;;;20.42;3.10;;;;;;;6.21;81.55;101180.88;5043195;28;20029;-66
2022/03/26 03:17:45;;;;;;;16.13;3.63;;;;;;;6.23;81.37;101178.31;5043332;28;20060;-64
2022/03/26 03:20:11;;;;;;;33.13;3.47;;;;;;;6.19;81.55;101178.25;5042875;28;20053;-67
2022/03/26 03:22:37;;;;;;;14.43;3.40;;;;;;;6.18;81.43;101171.34;5043004;28;20025;-65
2022/03/26 03:25:04;;;;;;;25.13;4.25;;;;;;;6.15;81.54;101178.16;5043084;28;20147;-66
2022/03/26 03:27:30;;;;;;;18.45;3.53;;;;;;;6.14;81.67;101184.13;5042767;28;20077;-65
2022/03/26 03:29:55;;;;;;;14.18;2.75;;;;;;;6.12;81.61;101184.09;5042075;28;20075;-65
2022/03/26 03:32:20;;;;;;;23.60;4.45;;;;;;;6.18;81.34;101185.97;5042638;28;20014;-64
2022/03/26 03:34:46;;;;;;;19.55;2.85;;;;;;;6.13;81.32;101175.53;5042781;28;20111;-65
2022/03/26 03:37:11;;;;;;;20.42;3.47;;;;;;;6.20;81.16;101189.41;5042415;28;20029;-66
2022/03/26 03:39:36;;;;;;;20.48;3.83;;;;;;;6.20;81.23;101202.31;5043045;28;20383;-66
2022/03/26 03:42:04;;;;;;;21.40;3.45;;;;;;;6.26;80.92;101201.59;5042461;28;20072;-66
2022/03/26 03:44:29;;;;;;;17.17;3.15;;;;;;;6.24;80.59;101200.69;5042884;28;20092;-65
2022/03/26 03:46:54;;;;;;;20.20;3.67;;;;;;;6.25;80.92;101203.28;5042756;28;20075;-65
2022/03/26 03:49:20;;;;;;;19.83;3.50;;;;;;;6.24;80.63;101211.00;5041609;28;20127;-66
2022/03/26 03:51:45;;;;;;;24.48;3.42;;;;;;;6.25;80.54;101210.16;5041742;28;20085;-65
2022/03/26 03:54:11;;;;;;;21.95;3.92;;;;;;;6.28;80.43;101217.94;5042789;28;20024;-65
2022/03/26 03:56:38;;;;;;;19.42;2.95;;;;;;;6.28;80.29;101213.69;5042870;28;20026;-65
2022/03/26 03:59:03;;;;;;;17.70;2.95;;;;;;;6.30;80.08;101224.03;5042742;28;20022;-67
2022/03/26 04:01:29;;;;;;;18.73;3.88;;;;;;;6.29;79.94;101224.88;5024801;28;20048;-66
2022/03/26 04:03:54;;;;;;;19.35;2.88;;;;;;;6.28;79.92;101229.16;5043043;28;20017;-66
2022/03/26 04:06:19;;;;;;;17.42;3.97;;;;;;;6.30;79.76;101239.50;5042583;28;20452;-66
2022/03/26 04:08:45;;;;;;;23.77;3.25;;;;;;;6.30;79.42;101242.09;5042772;28;20025;-66
2022/03/26 04:11:10;;;;;;;23.80;4.85;;;;;;;6.29;79.59;101240.34;5042717;28;20032;-66
2022/03/26 04:13:35;;;;;;;21.83;3.38;;;;;;;6.23;79.55;101230.75;5042844;28;20137;-66
2022/03/26 04:16:02;;;;;;;22.40;2.70;;;;;;;6.27;79.44;101247.16;5042657;28;20025;-66
2022/03/26 04:18:27;;;;;;;18.33;3.35;;;;;;;6.26;79.30;101250.59;5042420;28;20029;-66
2022/03/26 04:20:53;;;;;;;27.27;4.40;;;;;;;6.24;79.36;101254.84;5042289;28;20043;-66
2022/03/26 04:23:19;;;;;;;23.98;3.67;;;;;;;6.24;79.26;101257.41;5042739;28;20503;-66
2022/03/26 04:25:46;;;;;;;17.13;3.00;;;;;;;6.21;79.33;101263.38;5042465;28;20025;-66
2022/03/26 04:28:11;;;;;;;16.83;2.22;;;;;;;6.17;79.29;101258.97;5042657;28;20083;-66
2022/03/26 04:30:36;;;;;;;18.15;2.97;;;;;;;6.14;79.47;101272.66;5042408;28;20025;-66
2022/03/26 04:33:02;;;;;;;24.17;4.10;;;;;;;6.06;79.45;101263.88;5042706;28;20045;-66
2022/03/26 04:35:27;;;;;;;17.27;3.40;;;;;;;6.05;79.67;101267.31;5042468;28;20098;-66
2022/03/26 04:37:55;;;;;;;12.93;2.30;;;;;;;6.10;79.72;101282.88;5045914;28;20036;-66
2022/03/26 04:40:24;;;;;;;20.35;2.90;;;;;;;6.10;79.79;101281.19;5046011;28;20143;-66
2022/03/26 04:42:50;;;;;;;24.63;3.53;;;;;;;6.11;79.62;101282.91;5046170;28;20081;-66
2022/03/26 04:45:15;;;;;;;10.57;2.55;;;;;;;6.10;79.72;101290.59;5046048;28;20088;-65
2022/03/26 04:47:41;;;;;;;20.75;3.58;;;;;;;6.10;79.75;101306.06;5045938;28;20025;-65
2022/03/26 04:50:07;;;;;;;17.30;3.30;;;;;;;6.11;79.72;101295.81;5045837;28;20036;-65
2022/03/26 04:52:33;;;;;;;12.07;3.58;;;;;;;6.12;79.74;101307.84;5045793;28;20018;-65
2022/03/26 04:54:59;;;;;;;16.77;3.10;;;;;;;6.15;79.70;101309.66;5045957;28;20044;-65
2022/03/26 04:57:24;;;;;;;17.08;2.95;;;;;;;6.15;79.70;101315.66;5045831;28;20036;-65
2022/03/26 04:59:50;;;;;;;26.33;3.78;;;;;;;6.11;79.35;101319.00;5045779;28;20025;-66
2022/03/26 05:02:15;;;;;;;17.92;3.38;;;;;;;6.14;79.39;101331.97;5027898;28;20034;-66
2022/03/26 05:04:41;;;;;;;20.73;3.25;;;;;;;6.13;79.23;101332.81;5045545;28;20033;-65
2022/03/26 05:09:51;;;;;;;14.27;3.63;;;;;;;6.11;79.23;101344.78;5045705;28;20048;-65
2022/03/26 05:12:17;;;;;;;30.40;3.40;;;;;;;6.13;79.26;101356.03;5045472;28;20477;-65
2022/03/26 05:14:43;;;;;;;23.05;3.15;;;;;;;6.17;79.28;101355.25;5046039;28;20687;-66
2022/03/26 05:17:08;;;;;;;19.85;3.35;;;;;;;6.17;79.28;101360.41;5045685;28;20028;-66
2022/03/26 05:19:34;;;;;;;19.15;3.88;;;;;;;6.12;79.44;101359.41;5045194;28;20467;-68
2022/03/26 05:21:59;;;;;;;20.05;3.10;;;;;;;6.12;79.40;101369.72;5045203;28;20032;-65
2022/03/26 05:24:24;;;;;;;18.70;3.03;;;;;;;6.05;79.42;101355.81;5045403;28;20064;-66
2022/03/26 05:26:50;;;;;;;21.92;3.33;;;;;;;6.12;79.61;101366.31;5045281;28;20077;-65
2022/03/26 05:29:15;;;;;;;20.52;3.10;;;;;;;6.10;79.56;101375.69;5045362;28;20021;-66
2022/03/26 05:31:40;;;;;;;17.65;3.35;;;;;;;6.10;79.74;101374.00;5045463;28;20432;-65
2022/03/26 05:34:06;;;;;;;16.60;2.80;;;;;;;6.11;79.85;101386.03;5045138;28;20033;-66
2022/03/26 05:36:31;;;;;;;19.92;2.88;;;;;;;6.10;79.89;101374.00;5044901;28;20037;-66
2022/03/26 05:38:57;;;;;;;11.20;2.17;;;;;;;6.18;79.68;101380.19;5045207;28;20032;-66
2022/03/26 05:41:23;;;;;;;10.57;2.90;;;;;;;6.19;79.89;101384.53;5044911;28;20065;-66
2022/03/26 05:43:49;;;;;;;15.40;3.40;;;;;;;6.17;79.66;101381.03;5044919;28;20021;-65
2022/03/26 05:46:15;;;;;;;18.95;3.03;;;;;;;6.27;79.64;101396.75;5044888;28;20489;-66
2022/03/26 05:48:40;;;;;;;20.42;2.65;;;;;;;6.32;79.25;101401.19;5044837;28;20052;-66
2022/03/26 05:51:06;;;;;;;14.07;2.75;;;;;;;6.33;79.35;101407.22;5044533;28;20094;-66
2022/03/26 05:53:31;;;;;;;15.43;2.40;;;;;;;6.39;79.12;101407.38;5027031;28;20077;-66
2022/03/26 05:55:57;;;;;;;16.75;2.55;;;;;;;6.43;78.92;101414.38;5044920;28;20085;-64
2022/03/26 05:58:22;;;;;;;7.20;1.75;;;;;;;6.45;78.33;101419.56;5044702;28;20066;-64
2022/03/26 06:00:49;;;;;;;6.32;1.58;;;;;;;6.49;77.68;101433.38;5044415;28;20025;-65
2022/03/26 06:03:16;;;;;;;18.55;2.45;;;;;;;6.54;77.21;101434.38;5044616;28;20076;-65
2022/03/26 06:05:41;;;;;;;8.75;1.70;;;;;;;6.60;76.71;101429.38;5044381;28;20025;-69
2022/03/26 06:08:08;;;;;;;7.10;1.92;;;;;;;6.69;76.17;101447.66;5044557;28;20097;-66
2022/03/26 06:10:34;;;;;;;12.02;2.10;;;;;;;6.72;75.57;101454.63;5044521;28;20029;-66
2022/03/26 06:13:00;;;;;;;9.40;1.90;;;;;;;6.73;75.08;101443.44;5044465;28;20489;-67
2022/03/26 06:15:25;;;;;;;9.20;2.05;;;;;;;6.72;74.26;101446.88;5044420;28;20036;-66
2022/03/26 06:17:50;;;;;;;7.93;2.53;;;;;;;6.82;73.63;101455.72;5044547;28;20084;-66
2022/03/26 06:20:16;;;;;;;9.80;1.90;;;;;;;6.83;72.11;101462.63;5044529;28;20033;-66
2022/03/26 06:22:41;;;;;;;7.20;1.60;;;;;;;6.88;71.10;101470.47;5043936;28;20029;-66
2022/03/26 06:25:07;;;;;;;8.13;1.88;;;;;;;6.91;70.77;101476.59;5044457;28;20060;-66
2022/03/26 06:27:32;;;;;;;9.60;1.52;;;;;;;6.99;69.86;101487.09;5044223;28;20489;-66
2022/03/26 06:29:57;;;;;;;6.50;1.30;;;;;;;7.00;68.40;101485.38;5043974;28;20117;-67
2022/03/26 06:32:22;;;;;;;5.03;1.83;;;;;;;7.03;68.27;101490.59;5044163;28;20048;-67
2022/03/26 06:34:48;;;;;;;5.78;1.50;;;;;;;7.10;66.83;101501.97;5044152;28;20426;-67
2022/03/26 06:37:13;;;;;;;10.13;2.10;;;;;;;7.17;66.03;101504.72;5043661;28;20018;-69
2022/03/26 06:39:39;;;;;;;5.68;1.42;;;;;;;7.19;64.76;101497.00;5043842;28;20026;-66
2022/03/26 06:42:04;;;;;;;5.30;1.05;;;;;;;7.35;63.79;101510.31;5042938;28;20052;-66
2022/03/26 06:44:30;;;;;;;5.28;1.40;;;;;;;7.42;61.83;101507.88;5042642;28;20599;-66
2022/03/26 06:46:55;;;;;;;6.65;1.70;;;;;;;7.48;60.12;101511.41;5043065;28;20028;-67
2022/03/26 06:49:21;;;;;;;3.85;1.30;;;;;;;7.61;58.33;101521.22;5044004;28;20128;-67
2022/03/26 06:51:46;;;;;;;4.60;1.30;;;;;;;7.58;56.93;101515.97;5043664;28;20365;-67
2022/03/26 06:54:12;;;;;;;4.68;1.23;;;;;;;7.72;54.96;101523.13;5043722;28;20025;-68
2022/03/26 06:56:37;;;;;;;7.78;1.40;;;;;;;7.79;51.75;101533.66;5043814;28;20025;-67
2022/03/26 06:59:02;;;;;;;2.58;0.95;;;;;;;7.87;50.62;101530.38;5043287;28;20025;-68
2022/03/26 07:01:28;;;;;;;2.65;1.05;;;;;;;8.03;49.21;101541.91;5043397;28;20032;-68
2022/03/26 07:03:53;;;;;;;9.02;1.50;;;;;;;8.07;46.62;101538.53;5043523;28;20021;-66
2022/03/26 07:06:19;;;;;;;5.47;1.20;;;;;;;8.19;47.23;101548.25;5043258;28;20033;-65
2022/03/26 07:08:45;;;;;;;4.68;1.42;;;;;;;8.36;47.81;101556.34;5043542;28;20032;-65
2022/03/26 07:11:10;;;;;;;4.97;1.02;;;;;;;8.61;45.48;101554.25;5043229;28;20104;-64
2022/03/26 07:13:36;;;;;;;4.18;1.20;;;;;;;8.81;45.25;101561.50;5043264;28;20489;-65
2022/03/26 07:16:02;;;;;;;3.88;1.40;;;;;;;8.95;42.75;101561.75;5043078;28;20033;-65
2022/03/26 07:18:27;;;;;;;6.05;1.67;;;;;;;9.07;42.83;101566.28;5043507;28;20171;-65
2022/03/26 07:20:57;;;;;;;2.17;1.02;;;;;;;9.25;43.25;101572.59;5043451;28;20021;-67
2022/03/26 07:23:22;;;;;;;4.57;1.08;;;;;;;9.57;43.26;101577.38;5043032;28;20029;-65
2022/03/26 07:25:48;;;;;;;4.03;1.15;;;;;;;9.85;41.80;101569.13;5043517;28;20025;-66
2022/03/26 07:28:14;;;;;;;3.45;1.02;;;;;;;10.12;40.90;101575.50;5042500;28;20030;-66
2022/03/26 07:30:40;;;;;;;2.75;0.82;;;;;;;10.36;40.36;101582.75;5042319;28;20024;-66
2022/03/26 07:33:05;;;;;;;3.58;1.20;;;;;;;10.40;39.11;101587.09;5042986;28;20030;-66
2022/03/26 07:35:31;;;;;;;2.50;1.00;;;;;;;10.63;37.84;101593.44;5043127;28;20101;-67
2022/03/26 07:37:58;;;;;;;3.65;1.50;;;;;;;10.83;36.54;101590.16;5043037;28;20033;-66
2022/03/26 07:40:23;;;;;;;3.03;1.05;;;;;;;10.91;36.39;101589.38;5042848;28;20053;-67
2022/03/26 07:42:48;;;;;;;1.92;0.90;;;;;;;11.00;36.21;101599.00;5042885;28;20025;-67
2022/03/26 07:45:13;;;;;;;3.42;1.27;;;;;;;11.30;36.34;101598.34;5042986;28;20021;-67
2022/03/26 07:47:39;;;;;;;2.17;0.80;;;;;;;11.45;33.41;101600.22;5043175;28;20025;-66
2022/03/26 07:50:06;;;;;;;3.28;0.85;;;;;;;11.62;32.97;101608.13;5043024;28;20017;-67
2022/03/26 07:52:31;;;;;;;7.60;2.13;;;;;;;12.01;33.21;101614.41;5042493;28;20021;-67
2022/03/26 07:54:57;;;;;;;4.22;1.00;;;;;;;12.11;31.13;101620.56;5042973;28;20082;-66
2022/03/26 07:57:22;;;;;;;3.58;0.85;;;;;;;11.90;31.52;101624.75;5042581;28;20120;-68
2022/03/26 07:59:48;;;;;;;6.55;0.90;;;;;;;11.89;32.12;101615.22;5042726;28;20036;-70
2022/03/26 08:02:13;;;;;;;2.15;0.60;;;;;;;11.93;31.81;101625.66;5042923;28;20026;-68
2022/03/26 08:04:38;;;;;;;3.15;1.30;;;;;;;11.74;30.75;101613.38;5042628;28;20083;-73
2022/03/26 08:07:05;;;;;;;6.13;1.48;;;;;;;11.57;31.32;101621.09;5042576;28;20071;-71
2022/03/26 08:09:30;;;;;;;2.53;1.00;;;;;;;11.62;31.32;101628.94;5042642;28;20026;-74
2022/03/26 08:11:55;;;;;;;3.17;1.02;;;;;;;11.62;31.29;101635.00;5045239;28;20105;-71
2022/03/26 08:14:21;;;;;;;3.35;1.00;;;;;;;11.47;31.64;101634.91;5046615;28;20025;-70
2022/03/26 08:16:46;;;;;;;3.28;1.30;;;;;;;11.43;31.79;101648.72;5046368;28;20104;-70
2022/03/26 08:19:11;;;;;;;4.43;0.85;;;;;;;11.25;32.42;101638.19;5046776;28;20528;-72
2022/03/26 08:21:37;;;;;;;2.83;0.68;;;;;;;11.39;31.91;101655.63;5045498;28;20034;-69
2022/03/26 08:24:03;;;;;;;3.53;0.85;;;;;;;11.51;31.61;101652.25;5046272;28;20025;-68
2022/03/26 08:26:29;;;;;;;8.02;1.05;;;;;;;11.63;32.10;101647.16;5046402;28;20028;-68
2022/03/26 08:28:56;;;;;;;2.92;0.95;;;;;;;12.06;31.47;101650.03;5046660;28;20029;-68
2022/03/26 08:31:23;;;;;;;3.83;0.80;;;;;;;12.13;30.38;101667.44;5044836;28;20064;-69
2022/03/26 08:33:49;;;;;;;3.13;0.60;;;;;;;12.17;29.76;101665.72;5046397;28;20036;-73
2022/03/26 08:36:15;;;;;;;3.00;0.90;;;;;;;12.45;29.46;101663.22;5045808;28;20026;-74
2022/03/26 08:38:44;;;;;;;2.85;0.80;;;;;;;12.52;29.74;101671.06;5046061;28;20030;-75
2022/03/26 08:41:09;;;;;;;2.17;0.93;;;;;;;12.61;30.25;101665.03;5045830;28;20073;-74
2022/03/26 08:43:35;;;;;;;3.08;1.02;;;;;;;12.97;29.67;101657.31;5045541;28;20041;-74
2022/03/26 08:46:00;;;;;;;4.38;0.80;;;;;;;13.12;29.17;101660.81;5046363;28;20021;-73
2022/03/26 08:48:26;;;;;;;4.07;0.95;;;;;;;13.08;28.71;101665.13;5046132;28;20025;-73
2022/03/26 08:50:52;;;;;;;4.10;1.17;;;;;;;13.04;28.80;101673.81;5045774;28;20055;-73
2022/03/26 08:53:17;;;;;;;3.38;0.85;;;;;;;13.15;28.26;101684.25;5045824;28;20108;-73
2022/03/26 08:55:43;;;;;;;2.40;0.60;;;;;;;13.28;28.58;101677.34;5045618;28;20466;-71
2022/03/26 08:58:09;;;;;;;2.15;1.10;;;;;;;13.49;28.09;101681.69;5045905;28;20393;-72
2022/03/26 09:00:35;;;;;;;2.20;0.70;;;;;;;14.00;27.66;101674.69;5045654;28;20108;-74
2022/03/26 09:03:01;;;;;;;5.30;0.93;;;;;;;14.44;26.77;101692.84;5045507;28;20259;-74
2022/03/26 09:05:27;;;;;;;3.67;0.70;;;;;;;14.71;26.74;101691.84;5027754;28;20409;-76
2022/03/26 09:07:53;;;;;;;2.08;1.02;;;;;;;15.24;25.85;101678.47;5045390;28;20018;-67
2022/03/26 09:10:18;;;;;;;2.67;0.70;;;;;;;15.49;24.82;101683.50;5045518;28;20120;-67
2022/03/26 09:12:43;;;;;;;3.75;0.80;;;;;;;15.67;24.73;101693.84;5044976;28;20449;-65
2022/03/26 09:15:09;;;;;;;2.40;0.70;;;;;;;15.73;23.59;101701.63;5045092;28;20175;-65
2022/03/26 09:17:36;;;;;;;3.03;0.70;;;;;;;15.73;24.00;101693.78;5044328;28;20485;-72
2022/03/26 09:20:02;;;;;;;1.42;0.80;;;;;;;15.73;23.98;101694.63;5026742;28;20053;-67
2022/03/26 09:22:28;;;;;;;2.15;0.90;;;;;;;15.85;23.32;101698.91;5041789;28;20077;-73
2022/03/26 09:24:53;;;;;;;1.15;0.50;;;;;;;16.13;23.40;101686.44;5044681;28;20037;-72
2022/03/26 09:27:18;;;;;;;2.10;0.80;;;;;;;15.97;23.03;101697.03;5045467;28;20025;-74
2022/03/26 09:29:45;;;;;;;5.07;0.90;;;;;;;16.10;23.26;101696.03;5045413;28;20077;-67
2022/03/26 09:32:11;;;;;;;2.35;0.80;;;;;;;16.39;22.79;101707.06;5044746;28;20018;-71
2022/03/26 09:34:36;;;;;;;3.95;0.77;;;;;;;16.58;22.25;101686.75;5044867;28;20029;-68
2022/03/26 09:37:02;;;;;;;3.42;0.98;;;;;;;16.76;22.41;101703.13;5044656;28;20524;-67
2022/03/26 09:39:27;;;;;;;2.15;0.80;;;;;;;16.94;22.36;101695.88;5044802;28;20036;-70
2022/03/26 09:41:53;;;;;;;2.67;0.73;;;;;;;17.45;21.41;101699.50;5044570;28;20046;-65
2022/03/26 09:44:20;;;;;;;2.60;0.73;;;;;;;17.53;21.06;101708.13;5044500;28;20033;-71
2022/03/26 09:46:45;;;;;;;4.38;0.77;;;;;;;17.44;21.10;101706.50;5044712;28;20022;-71
2022/03/26 09:49:11;;;;;;;2.42;0.82;;;;;;;17.56;21.03;101701.94;5044842;28;20060;-69
2022/03/26 09:51:36;;;;;;;3.35;0.65;;;;;;;17.37;21.14;101712.75;5044370;28;20096;-67
2022/03/26 09:54:02;;;;;;;2.70;0.60;;;;;;;17.43;21.13;101688.16;5044575;28;20017;-65
2022/03/26 09:56:30;;;;;;;2.97;0.75;;;;;;;17.50;20.94;101700.31;5026590;28;20060;-62
2022/03/26 09:58:56;;;;;;;2.90;0.75;;;;;;;17.69;20.88;101716.59;5044347;28;20028;-66
2022/03/26 10:01:23;;;;;;;2.53;0.68;;;;;;;17.91;20.24;101718.84;5044228;28;20022;-65
2022/03/26 10:04:12;;;;;;;2.47;0.70;;;;;;;18.27;20.67;101727.84;5043783;28;20021;-66
2022/03/26 10:06:45;;;;;;;2.42;0.80;;;;;;;18.37;19.95;101705.72;5043729;28;20022;-65
2022/03/26 10:09:10;;;;;;;1.30;0.50;;;;;;;18.15;19.63;101718.44;5026042;28;20053;-65
2022/03/26 10:11:36;;;;;;;4.35;0.80;;;;;;;17.90;19.44;101713.63;5043696;28;20325;-65
2022/03/26 10:14:01;;;;;;;3.83;0.82;;;;;;;17.69;19.65;101715.72;5043980;28;20033;-66
2022/03/26 10:16:27;;;;;;;2.25;0.60;;;;;;;17.50;19.80;101736.19;5044086;28;20033;-65
2022/03/26 10:18:52;;;;;;;1.80;0.55;;;;;;;17.48;20.33;101728.34;5043645;28;20028;-65
2022/03/26 10:21:20;;;;;;;1.38;0.52;;;;;;;17.48;19.78;101724.84;5042901;28;20083;-65
2022/03/26 10:23:47;;;;;;;5.32;1.08;;;;;;;17.62;20.16;101724.63;5043373;28;20025;-65
2022/03/26 10:26:18;;;;;;;1.60;0.60;;;;;;;17.94;20.65;101720.53;5041753;28;20322;-65
2022/03/26 10:28:49;;;;;;;3.88;0.57;;;;;;;18.15;20.08;101729.81;5042431;28;20021;-66
2022/03/26 10:34:07;;;;;;;1.83;0.75;;;;;;;18.26;20.13;101732.25;5027847;28;20040;-65
2022/03/26 10:36:41;;;;;;;4.50;0.93;;;;;;;18.51;20.48;101737.03;5043330;28;20032;-65
2022/03/26 10:39:14;;;;;;;0.93;0.60;;;;;;;18.72;20.09;101737.47;5042590;28;20033;-65
2022/03/26 10:41:40;;;;;;;2.78;0.80;;;;;;;19.01;19.91;101730.66;5042861;28;20049;-64
2022/03/26 10:44:16;;;;;;;0.82;0.50;;;;;;;18.97;19.02;101734.28;5042968;28;20034;-65
2022/03/26 10:46:42;;;;;;;4.97;0.80;;;;;;;18.63;19.21;101737.63;5043332;28;20052;-66
2022/03/26 10:49:07;;;;;;;1.83;0.75;;;;;;;18.65;19.55;101743.75;5043277;28;20053;-68
2022/03/26 10:51:38;;;;;;;2.97;0.85;;;;;;;18.56;19.64;101734.28;5042886;28;20097;-66
2022/03/26 10:54:09;;;;;;;1.17;0.63;;;;;;;18.78;19.71;101744.34;5043418;28;20034;-66
2022/03/26 10:56:37;;;;;;;3.05;0.70;;;;;;;18.73;18.70;101739.19;5043132;28;20041;-67
2022/03/26 10:59:02;;;;;;;2.80;0.68;;;;;;;18.49;19.21;101737.94;5043108;28;20088;-66
2022/03/26 11:01:28;;;;;;;1.20;0.52;;;;;;;18.22;19.14;101741.09;5042842;28;20026;-66
2022/03/26 11:03:53;;;;;;;1.55;1.02;;;;;;;17.88;19.46;101736.41;5043001;28;20033;-67
2022/03/26 11:06:25;;;;;;;1.90;0.55;;;;;;;17.79;19.83;101737.47;5042585;28;20049;-63
2022/03/26 11:08:51;;;;;;;1.55;0.98;;;;;;;18.00;20.10;101736.22;5043139;28;20029;-64
2022/03/26 11:11:18;;;;;;;4.13;1.42;;;;;;;18.03;19.44;101736.16;5043049;28;20018;-67
2022/03/26 11:13:54;;;;;;;5.00;1.33;;;;;;;18.29;19.93;101740.06;5043085;28;20030;-64
2022/03/26 11:16:20;;;;;;;3.88;0.82;;;;;;;18.75;18.86;101731.25;5043034;28;20461;-70
2022/03/26 11:18:48;;;;;;;4.20;1.08;;;;;;;18.89;18.81;101742.34;5042572;28;20040;-69
2022/03/26 11:21:37;;;;;;;4.80;0.90;;;;;;;18.95;18.93;101739.59;5042715;28;20027;-69
2022/03/26 11:24:21;;;;;;;1.48;0.70;;;;;;;19.27;18.79;101746.78;5042631;28;20052;-70
2022/03/26 11:27:16;;;;;;;3.83;0.98;;;;;;;19.39;18.33;101741.22;5042817;28;20033;-69